Time;durP1;ratioP1;P1;durP2;ratioP2;P2;SDS_P1;SDS_P2;PMS_P1;PMS_P2;Temp;Humidity;BMP_temperature;BMP_pressure;BME280_temperature;BME280_humidity;BME280_pressure;Samples;Min_cycle;Max_cycle;Signal;HPM_P1;HPM_P2
2021/12/21 00:03:13;;;;;;;;;;;0.20;99.90;;;;;;8354149;28;19928;-70
2021/12/21 00:07:15;;;;;;;;;;;0.20;99.90;;;;;;8374526;28;19967;-71
2021/12/21 00:11:17;;;;;;;;;;;0.10;99.90;;;;;;8370415;28;20375;-70
2021/12/21 00:15:24;;;;;;;;;;;0.20;99.90;;;;;;8377715;28;19955;-70
2021/12/21 00:19:43;;;;;;;;;;;0.10;99.90;;;;;;8377330;28;19925;-70
2021/12/21 00:23:48;;;;;;;;;;;0.10;99.90;;;;;;8350512;28;20011;-70
2021/12/21 00:27:52;;;;;;;;;;;0.10;99.90;;;;;;8375863;28;20295;-70
2021/12/21 00:31:53;;;;;;;;;;;0.10;99.90;;;;;;8380809;28;19953;-70
2021/12/21 00:35:55;;;;;;;;;;;0.10;99.90;;;;;;8396225;28;19920;-70
2021/12/21 00:39:57;;;;;;;;;;;0.10;99.90;;;;;;8357486;28;20336;-70
2021/12/21 00:43:58;;;;;;;;;;;0.10;99.90;;;;;;8373983;28;20386;-70
2021/12/21 00:48:00;;;;;;;;;;;0.10;99.90;;;;;;8371680;28;19974;-70
2021/12/21 00:52:02;;;;;;;;;;;0.00;99.90;;;;;;8359762;28;19924;-70
2021/12/21 00:56:03;;;;;;;;;;;0.00;99.90;;;;;;8374515;28;20407;-70
2021/12/21 01:00:06;;;;;;;;;;;-0.10;99.90;;;;;;8373434;28;19921;-70
2021/12/21 01:04:16;;;;;;;;;;;-0.10;99.90;;;;;;8367157;28;20423;-70
2021/12/21 01:08:22;;;;;;;;;;;-0.20;99.90;;;;;;8374248;28;20062;-70
2021/12/21 01:21:11;;;;;;;;;;;-0.20;99.90;;;;;;8377610;28;19921;-70
2021/12/21 01:29:26;;;;;;;;;;;-0.30;99.90;;;;;;8383043;28;19920;-70
2021/12/21 01:50:26;;;;;;;;;;;-0.40;99.90;;;;;;8389801;28;19968;-70
2021/12/21 01:54:28;;;;;;;;;;;-0.40;99.90;;;;;;8395805;28;20360;-70
2021/12/21 01:58:29;;;;;;;;;;;-0.50;99.90;;;;;;8381186;28;19920;-70
2021/12/21 02:02:31;;;;;;;;;;;-0.50;99.90;;;;;;8380007;28;19999;-70
2021/12/21 02:06:33;;;;;;;;;;;-0.50;99.90;;;;;;8397125;28;19920;-69
2021/12/21 02:10:34;;;;;;;;;;;-0.50;99.90;;;;;;8377817;28;19927;-70
2021/12/21 02:14:36;;;;;;;;;;;-0.60;99.90;;;;;;8386590;28;19920;-70
2021/12/21 02:22:46;;;;;;;;;;;-0.60;99.90;;;;;;8378787;28;19981;-70
2021/12/21 02:30:54;;;;;;;;;;;-0.60;99.90;;;;;;8377297;28;19931;-70
2021/12/21 02:34:56;;;;;;;;;;;-0.60;99.90;;;;;;8386385;28;19963;-70
2021/12/21 02:38:57;;;;;;;;;;;-0.70;99.90;;;;;;8382190;28;19968;-70
2021/12/21 02:42:59;;;;;;;;;;;-0.70;99.90;;;;;;8397695;28;19931;-70
2021/12/21 02:47:01;;;;;;;;;;;-0.70;99.90;;;;;;8380834;28;19928;-70
2021/12/21 02:51:02;;;;;;;;;;;-0.70;99.90;;;;;;8377558;28;20027;-69
2021/12/21 02:55:04;;;;;;;;;;;-0.80;99.90;;;;;;8378435;28;19963;-69
2021/12/21 02:59:06;;;;;;;;;;;-0.80;99.90;;;;;;8369709;28;19963;-69
2021/12/21 03:03:12;;;;;;;;;;;-0.80;99.90;;;;;;8380613;28;20371;-69
2021/12/21 03:15:58;;;;;;;;;;;-0.90;99.90;;;;;;8365769;28;19921;-69
2021/12/21 03:20:00;;;;;;;;;;;-0.90;99.90;;;;;;8390249;28;19928;-69
2021/12/21 03:24:02;;;;;;;;;;;-0.90;99.90;;;;;;8373399;28;19952;-70
2021/12/21 03:28:04;;;;;;;;;;;-0.90;99.90;;;;;;8381677;28;19921;-69
2021/12/21 03:32:06;;;;;;;;;;;-1.00;99.90;;;;;;8375255;28;20273;-69
2021/12/21 03:36:08;;;;;;;;;;;-1.10;99.90;;;;;;8384962;28;20380;-69
2021/12/21 03:40:10;;;;;;;;;;;-1.10;99.90;;;;;;8377938;28;19932;-69
2021/12/21 03:44:11;;;;;;;;;;;-1.10;99.90;;;;;;8373936;28;19943;-69
2021/12/21 03:48:15;;;;;;;;;;;-1.20;99.90;;;;;;8353134;28;19979;-70
2021/12/21 03:52:17;;;;;;;;;;;-1.20;99.90;;;;;;8330604;28;19956;-69
2021/12/21 04:00:22;;;;;;;;;;;-1.20;99.90;;;;;;8324991;28;20036;-69
2021/12/21 04:04:24;;;;;;;;;;;-1.20;99.90;;;;;;8351531;28;19925;-70
2021/12/21 04:08:26;;;;;;;;;;;-1.20;99.90;;;;;;8329702;28;19963;-70
2021/12/21 04:12:28;;;;;;;;;;;-1.30;99.90;;;;;;8344903;28;19964;-70
2021/12/21 04:16:29;;;;;;;;;;;-1.30;99.90;;;;;;8324352;28;20012;-70
2021/12/21 04:20:31;;;;;;;;;;;-1.30;99.90;;;;;;8322513;28;19964;-70
2021/12/21 04:24:32;;;;;;;;;;;-1.30;99.90;;;;;;8328448;28;20295;-70
2021/12/21 04:28:34;;;;;;;;;;;-1.30;99.90;;;;;;8326935;28;19952;-70
2021/12/21 04:32:36;;;;;;;;;;;-1.30;99.90;;;;;;8327627;28;20012;-70
2021/12/21 04:36:38;;;;;;;;;;;-1.40;99.90;;;;;;8323564;28;19921;-70
2021/12/21 04:40:45;;;;;;;;;;;-1.40;99.90;;;;;;8337962;28;19975;-69
2021/12/21 04:44:46;;;;;;;;;;;-1.40;99.90;;;;;;8332445;28;20124;-70
2021/12/21 04:48:48;;;;;;;;;;;-1.50;99.90;;;;;;8344138;28;19952;-70
2021/12/21 04:52:50;;;;;;;;;;;-1.50;99.90;;;;;;8341087;28;19921;-69
2021/12/21 04:56:52;;;;;;;;;;;-1.50;99.90;;;;;;8343281;28;19959;-69
2021/12/21 05:00:53;;;;;;;;;;;-1.50;99.90;;;;;;8325329;28;20368;-69
2021/12/21 05:04:55;;;;;;;;;;;-1.50;99.90;;;;;;8328760;28;19921;-70
2021/12/21 05:09:21;;;;;;;;;;;-1.60;99.90;;;;;;8329734;28;19920;-70
2021/12/21 05:13:25;;;;;;;;;;;-1.60;99.90;;;;;;8349090;28;19928;-69
2021/12/21 05:17:27;;;;;;;;;;;-1.60;99.90;;;;;;8375065;28;19921;-69
2021/12/21 05:21:28;;;;;;;;;;;-1.60;99.90;;;;;;8354430;28;19928;-69
2021/12/21 05:25:31;;;;;;;;;;;-1.70;99.90;;;;;;8357094;28;20170;-69
2021/12/21 05:29:35;;;;;;;;;;;-1.70;99.90;;;;;;8358793;28;19927;-70
2021/12/21 05:33:37;;;;;;;;;;;-1.70;99.90;;;;;;8360877;28;19944;-70
2021/12/21 05:37:40;;;;;;;;;;;-1.70;99.90;;;;;;8356040;28;19971;-70
2021/12/21 05:45:49;;;;;;;;;;;-1.80;99.90;;;;;;8360443;28;20280;-70
2021/12/21 05:49:51;;;;;;;;;;;-1.80;99.90;;;;;;8385619;28;19963;-70
2021/12/21 05:53:52;;;;;;;;;;;-1.80;99.90;;;;;;8379335;28;19951;-70
2021/12/21 05:57:54;;;;;;;;;;;-1.90;99.90;;;;;;8379569;28;19938;-70
2021/12/21 06:01:55;;;;;;;;;;;-1.90;99.90;;;;;;8380921;28;19972;-70
2021/12/21 06:05:57;;;;;;;;;;;-1.80;99.90;;;;;;8377785;28;20331;-70
2021/12/21 06:10:07;;;;;;;;;;;-1.90;99.90;;;;;;8378058;28;19947;-70
2021/12/21 06:14:33;;;;;;;;;;;-1.90;99.90;;;;;;8388841;28;19969;-70
2021/12/21 06:27:06;;;;;;;;;;;-1.90;99.90;;;;;;8371633;28;19943;-70
2021/12/21 06:31:08;;;;;;;;;;;-1.90;99.90;;;;;;8369290;28;20352;-70
2021/12/21 06:35:10;;;;;;;;;;;-1.90;99.90;;;;;;8361200;28;20007;-70
2021/12/21 06:39:11;;;;;;;;;;;-2.00;99.90;;;;;;8376509;28;20360;-69
2021/12/21 06:43:15;;;;;;;;;;;-2.00;99.90;;;;;;8384812;28;19928;-70
2021/12/21 06:51:47;;;;;;;;;;;-2.00;99.90;;;;;;8343045;28;20382;-70
2021/12/21 06:55:49;;;;;;;;;;;-2.00;99.90;;;;;;8383857;28;19921;-70
2021/12/21 06:59:51;;;;;;;;;;;-2.10;99.90;;;;;;8383045;28;20636;-69
2021/12/21 07:03:52;;;;;;;;;;;-2.10;99.90;;;;;;8387294;28;21459;-70
2021/12/21 07:07:55;;;;;;;;;;;-2.10;99.90;;;;;;8361419;28;19944;-70
2021/12/21 07:12:16;;;;;;;;;;;-2.10;99.90;;;;;;8386714;28;20295;-70
2021/12/21 07:20:37;;;;;;;;;;;-2.10;99.90;;;;;;8382941;28;19999;-69
2021/12/21 07:24:40;;;;;;;;;;;-2.10;99.90;;;;;;8367511;28;19920;-70
2021/12/21 07:28:41;;;;;;;;;;;-2.10;99.90;;;;;;8390614;28;19991;-69
2021/12/21 07:32:43;;;;;;;;;;;-2.20;99.90;;;;;;8378960;28;20220;-69
2021/12/21 07:36:45;;;;;;;;;;;-2.20;99.90;;;;;;8395615;28;19920;-69
2021/12/21 07:40:46;;;;;;;;;;;-2.20;99.90;;;;;;8378832;28;19920;-69
2021/12/21 07:44:48;;;;;;;;;;;-2.20;99.90;;;;;;8385766;28;19971;-70
2021/12/21 07:48:50;;;;;;;;;;;-2.20;99.90;;;;;;8374733;28;19920;-70
2021/12/21 07:52:54;;;;;;;;;;;-2.20;99.90;;;;;;8387283;28;19920;-70
2021/12/21 07:56:56;;;;;;;;;;;-2.20;99.90;;;;;;8367772;28;19932;-69
2021/12/21 08:00:58;;;;;;;;;;;-2.20;99.90;;;;;;8386857;28;20012;-69
2021/12/21 08:05:05;;;;;;;;;;;-2.20;99.90;;;;;;8369679;28;19947;-69
2021/12/21 08:09:06;;;;;;;;;;;-2.20;99.90;;;;;;8375644;28;19920;-70
2021/12/21 08:13:08;;;;;;;;;;;-2.10;99.90;;;;;;8385925;28;19924;-70
2021/12/21 08:17:10;;;;;;;;;;;-2.00;99.90;;;;;;8385173;28;20038;-70
2021/12/21 08:21:18;;;;;;;;;;;-2.00;99.90;;;;;;8367244;28;20396;-69
2021/12/21 08:25:24;;;;;;;;;;;-2.00;99.90;;;;;;8386377;28;19962;-70
2021/12/21 08:29:26;;;;;;;;;;;-2.00;99.90;;;;;;8398889;28;19929;-70
2021/12/21 08:33:28;;;;;;;;;;;-1.90;99.90;;;;;;8374631;28;19935;-70
2021/12/21 08:37:29;;;;;;;;;;;-2.00;99.90;;;;;;8381760;28;20016;-69
2021/12/21 08:41:33;;;;;;;;;;;-1.90;99.90;;;;;;8381901;28;20018;-70
2021/12/21 08:45:35;;;;;;;;;;;-1.90;99.90;;;;;;8379748;28;19959;-70
2021/12/21 08:49:37;;;;;;;;;;;-1.80;99.90;;;;;;8378845;28;20344;-69
2021/12/21 08:53:42;;;;;;;;;;;-1.70;99.90;;;;;;8361927;28;20347;-70
2021/12/21 08:57:44;;;;;;;;;;;-1.60;99.90;;;;;;8382997;28;19982;-70
2021/12/21 09:01:46;;;;;;;;;;;-1.50;99.90;;;;;;8386930;28;19963;-70
2021/12/21 09:05:48;;;;;;;;;;;-1.30;99.90;;;;;;8383861;28;19920;-70
2021/12/21 09:09:49;;;;;;;;;;;-1.20;99.90;;;;;;8361385;28;20549;-70
2021/12/21 09:13:51;;;;;;;;;;;-0.80;99.90;;;;;;8383639;28;19960;-70
2021/12/21 09:17:53;;;;;;;;;;;-0.40;99.90;;;;;;8380903;28;19921;-70
2021/12/21 09:21:54;;;;;;;;;;;0.10;99.90;;;;;;8377419;28;19977;-70
2021/12/21 09:25:56;;;;;;;;;;;0.60;99.90;;;;;;8383129;28;19971;-70
2021/12/21 09:29:57;;;;;;;;;;;1.00;99.90;;;;;;8382606;28;20253;-70
2021/12/21 09:33:59;;;;;;;;;;;1.10;99.90;;;;;;8383496;28;19920;-70
2021/12/21 09:38:01;;;;;;;;;;;1.10;99.90;;;;;;8364658;28;20398;-70
2021/12/21 09:42:03;;;;;;;;;;;1.20;99.90;;;;;;8388993;28;19964;-70
2021/12/21 09:46:05;;;;;;;;;;;1.30;99.90;;;;;;8370835;28;19935;-70
2021/12/21 09:50:07;;;;;;;;;;;1.30;99.90;;;;;;8388663;28;19927;-70
2021/12/21 09:54:09;;;;;;;;;;;1.30;99.90;;;;;;8389065;28;20010;-70
2021/12/21 09:58:11;;;;;;;;;;;1.40;99.90;;;;;;8391016;28;19951;-70
2021/12/21 10:02:12;;;;;;;;;;;1.60;99.90;;;;;;8388708;28;20005;-70
2021/12/21 10:06:15;;;;;;;;;;;1.90;99.90;;;;;;8365885;28;19951;-70
2021/12/21 10:10:18;;;;;;;;;;;2.00;99.90;;;;;;8387798;28;19952;-70
2021/12/21 10:14:22;;;;;;;;;;;2.20;99.90;;;;;;8377038;28;19966;-71
2021/12/21 10:18:32;;;;;;;;;;;2.40;99.90;;;;;;8369848;28;20716;-69
2021/12/21 10:22:34;;;;;;;;;;;2.60;99.90;;;;;;8380613;28;19932;-70
2021/12/21 10:26:35;;;;;;;;;;;2.90;99.90;;;;;;8386830;28;20420;-71
2021/12/21 10:30:48;;;;;;;;;;;3.20;99.90;;;;;;8382987;28;19978;-71
2021/12/21 10:35:12;;;;;;;;;;;3.70;99.90;;;;;;8388683;28;19960;-70
2021/12/21 10:39:24;;;;;;;;;;;4.30;99.90;;;;;;8368919;28;19943;-70
2021/12/21 10:43:27;;;;;;;;;;;4.90;99.90;;;;;;8379605;28;19928;-70
2021/12/21 10:47:29;;;;;;;;;;;5.50;99.90;;;;;;8384132;28;19971;-70
2021/12/21 10:51:30;;;;;;;;;;;6.10;99.90;;;;;;8371221;28;20332;-70
2021/12/21 10:55:34;;;;;;;;;;;6.70;99.90;;;;;;8394224;28;19929;-71
2021/12/21 10:59:37;;;;;;;;;;;7.30;99.90;;;;;;8363315;28;20300;-71
2021/12/21 11:03:44;;;;;;;;;;;8.00;99.90;;;;;;8363540;28;19971;-71
2021/12/21 11:07:50;;;;;;;;;;;8.60;99.90;;;;;;8384356;28;19938;-70
2021/12/21 11:11:55;;;;;;;;;;;9.20;99.90;;;;;;8366407;28;19927;-71
2021/12/21 11:15:57;;;;;;;;;;;9.60;99.90;;;;;;8386041;28;20042;-71
2021/12/21 11:19:58;;;;;;;;;;;10.00;99.90;;;;;;8385614;28;19924;-71
2021/12/21 11:24:02;;;;;;;;;;;10.30;99.90;;;;;;8387324;28;19946;-71
2021/12/21 11:28:05;;;;;;;;;;;10.50;99.90;;;;;;8368007;28;20011;-71
2021/12/21 11:32:07;;;;;;;;;;;10.80;99.90;;;;;;8383774;28;20386;-70
2021/12/21 11:40:31;;;;;;;;;;;11.40;99.90;;;;;;8382554;28;19920;-71
2021/12/21 11:44:32;;;;;;;;;;;11.70;99.90;;;;;;8382723;28;19963;-72
2021/12/21 11:48:43;;;;;;;;;;;12.20;99.90;;;;;;8380239;28;20284;-71
2021/12/21 11:52:49;;;;;;;;;;;12.60;99.90;;;;;;8369823;28;19990;-72
2021/12/21 11:57:00;;;;;;;;;;;12.90;99.90;;;;;;8369905;28;20023;-71
2021/12/21 12:01:04;;;;;;;;;;;13.00;99.90;;;;;;8376702;28;20276;-71
2021/12/21 12:05:17;;;;;;;;;;;13.10;99.90;;;;;;8372936;28;19928;-71
2021/12/21 12:09:21;;;;;;;;;;;12.90;99.90;;;;;;8371661;28;20240;-71
2021/12/21 12:13:28;;;;;;;;;;;12.70;99.90;;;;;;8373830;28;20042;-70
2021/12/21 12:17:31;;;;;;;;;;;12.80;99.90;;;;;;8355599;28;20008;-71
2021/12/21 12:21:33;;;;;;;;;;;13.00;99.90;;;;;;8358692;28;19921;-71
2021/12/21 12:25:35;;;;;;;;;;;13.40;99.90;;;;;;8381065;28;19924;-71
2021/12/21 12:29:42;;;;;;;;;;;13.50;99.90;;;;;;8380192;28;19954;-71
2021/12/21 12:33:47;;;;;;;;;;;13.80;99.90;;;;;;8378785;28;20330;-71
2021/12/21 12:37:50;;;;;;;;;;;14.00;99.90;;;;;;8379440;28;19947;-71
2021/12/21 12:41:51;;;;;;;;;;;14.10;99.90;;;;;;8380221;28;19959;-70
2021/12/21 12:46:02;;;;;;;;;;;14.60;99.90;;;;;;8365810;28;19936;-71
2021/12/21 12:50:13;;;;;;;;;;;15.10;99.90;;;;;;8385630;28;19927;-71
2021/12/21 12:54:16;;;;;;;;;;;15.70;99.90;;;;;;8385480;28;20379;-71
2021/12/21 12:58:22;;;;;;;;;;;16.10;99.90;;;;;;8366592;28;19927;-72
2021/12/21 13:02:25;;;;;;;;;;;16.30;99.90;;;;;;8366242;28;20376;-71
2021/12/21 13:06:29;;;;;;;;;;;16.20;99.90;;;;;;8383982;28;19920;-71
2021/12/21 13:10:31;;;;;;;;;;;16.50;99.90;;;;;;8387468;28;20288;-73
2021/12/21 13:14:32;;;;;;;;;;;17.20;99.90;;;;;;8388132;28;19963;-71
2021/12/21 13:18:40;;;;;;;;;;;17.70;99.90;;;;;;8386859;28;19967;-72
2021/12/21 13:22:41;;;;;;;;;;;17.90;99.90;;;;;;8387277;28;19968;-72
2021/12/21 13:26:45;;;;;;;;;;;17.10;99.90;;;;;;8384092;28;20344;-72
2021/12/21 13:30:48;;;;;;;;;;;15.90;99.90;;;;;;8384803;28;19959;-72
2021/12/21 13:34:52;;;;;;;;;;;14.70;99.90;;;;;;8386612;28;19924;-71
2021/12/21 13:38:56;;;;;;;;;;;13.70;99.90;;;;;;8391314;28;19924;-71
2021/12/21 13:42:58;;;;;;;;;;;12.80;99.90;;;;;;8370904;28;19931;-70
2021/12/21 13:47:01;;;;;;;;;;;12.10;99.90;;;;;;8385406;28;19963;-71
2021/12/21 13:51:17;;;;;;;;;;;11.50;99.90;;;;;;8385740;28;19920;-71
2021/12/21 13:55:30;;;;;;;;;;;11.00;99.90;;;;;;8387497;28;20376;-71
2021/12/21 13:59:35;;;;;;;;;;;10.50;99.90;;;;;;8381335;28;19932;-71
2021/12/21 14:03:45;;;;;;;;;;;10.20;99.90;;;;;;8388865;28;22350;-71
2021/12/21 14:07:48;;;;;;;;;;;10.00;99.90;;;;;;8389597;28;19974;-70
2021/12/21 14:11:53;;;;;;;;;;;9.60;99.90;;;;;;8389558;28;19984;-71
2021/12/21 14:15:55;;;;;;;;;;;9.40;99.90;;;;;;8385560;28;19975;-71
2021/12/21 14:19:58;;;;;;;;;;;9.30;99.90;;;;;;8387579;28;19933;-71
2021/12/21 14:24:01;;;;;;;;;;;9.10;99.90;;;;;;8388724;28;19982;-70
2021/12/21 14:28:10;;;;;;;;;;;8.90;99.90;;;;;;8387392;28;19929;-71
2021/12/21 14:36:18;;;;;;;;;;;8.70;99.90;;;;;;8387593;28;19925;-70
2021/12/21 14:40:20;;;;;;;;;;;8.60;99.90;;;;;;8387359;28;19971;-70
2021/12/21 14:44:23;;;;;;;;;;;8.40;99.90;;;;;;8366238;28;19963;-70
2021/12/21 14:48:28;;;;;;;;;;;8.50;99.90;;;;;;8385118;28;19932;-71
2021/12/21 14:52:39;;;;;;;;;;;9.10;99.90;;;;;;8383321;28;20011;-72
2021/12/21 14:56:41;;;;;;;;;;;10.10;99.90;;;;;;8383168;28;19931;-71
2021/12/21 15:00:49;;;;;;;;;;;11.00;99.90;;;;;;8365650;28;19988;-71
2021/12/21 15:04:55;;;;;;;;;;;11.60;99.90;;;;;;8367888;28;19929;-71
2021/12/21 15:08:57;;;;;;;;;;;11.90;99.90;;;;;;8353668;28;20019;-71
2021/12/21 15:13:09;;;;;;;;;;;11.90;99.90;;;;;;8383734;28;19933;-71
2021/12/21 15:17:11;;;;;;;;;;;11.70;99.90;;;;;;8384465;28;19972;-71
2021/12/21 15:21:12;;;;;;;;;;;11.20;99.90;;;;;;8387673;28;19924;-71
2021/12/21 15:25:14;;;;;;;;;;;10.50;99.90;;;;;;8382696;28;19924;-70
2021/12/21 15:29:16;;;;;;;;;;;9.50;99.90;;;;;;8381466;28;19974;-71
2021/12/21 15:33:17;;;;;;;;;;;8.70;99.90;;;;;;8384810;28;19928;-70
2021/12/21 15:37:19;;;;;;;;;;;8.00;99.90;;;;;;8360455;28;19972;-71
2021/12/21 15:41:21;;;;;;;;;;;7.40;99.90;;;;;;8382815;28;19960;-71
2021/12/21 15:45:23;;;;;;;;;;;7.00;99.90;;;;;;8383088;28;19968;-70
2021/12/21 15:49:25;;;;;;;;;;;6.60;99.90;;;;;;8380832;28;19924;-70
2021/12/21 15:53:27;;;;;;;;;;;6.20;99.90;;;;;;8365235;28;20434;-70
2021/12/21 15:57:28;;;;;;;;;;;6.00;99.90;;;;;;8384315;28;19932;-72
2021/12/21 16:01:30;;;;;;;;;;;5.70;99.90;;;;;;8352578;28;20011;-71
2021/12/21 16:05:32;;;;;;;;;;;5.40;99.90;;;;;;8361011;28;19931;-71
2021/12/21 16:09:33;;;;;;;;;;;5.30;99.90;;;;;;8357803;28;20399;-70
2021/12/21 16:13:35;;;;;;;;;;;5.10;99.90;;;;;;8379867;28;20411;-70
2021/12/21 16:17:39;;;;;;;;;;;4.90;99.90;;;;;;8364271;28;19948;-71
2021/12/21 16:21:40;;;;;;;;;;;4.80;99.90;;;;;;8379370;28;19924;-70
2021/12/21 16:26:02;;;;;;;;;;;4.80;99.90;;;;;;8380014;28;19930;-70
2021/12/21 16:30:19;;;;;;;;;;;4.80;99.90;;;;;;8379052;28;20015;-71
2021/12/21 16:34:22;;;;;;;;;;;4.60;99.90;;;;;;8379006;28;20027;-70
2021/12/21 16:38:23;;;;;;;;;;;4.40;99.90;;;;;;8382082;28;19929;-70
2021/12/21 16:42:25;;;;;;;;;;;4.30;99.90;;;;;;8363160;28;19929;-70
2021/12/21 16:46:27;;;;;;;;;;;4.20;99.90;;;;;;8352194;28;19929;-71
2021/12/21 16:50:29;;;;;;;;;;;4.10;99.90;;;;;;8348391;28;20710;-70
2021/12/21 16:54:30;;;;;;;;;;;4.00;99.90;;;;;;8350143;28;20055;-70
2021/12/21 16:58:36;;;;;;;;;;;4.00;99.90;;;;;;8378853;28;19971;-71
2021/12/21 17:02:37;;;;;;;;;;;3.90;99.90;;;;;;8377982;28;20027;-72
2021/12/21 17:06:41;;;;;;;;;;;3.80;99.90;;;;;;8381221;28;20065;-70
2021/12/21 17:10:45;;;;;;;;;;;3.70;99.90;;;;;;8376415;28;19979;-71
2021/12/21 17:14:47;;;;;;;;;;;3.60;99.90;;;;;;8338152;28;20595;-72
2021/12/21 17:18:49;;;;;;;;;;;3.60;99.90;;;;;;8353596;28;19929;-71
2021/12/21 17:22:51;;;;;;;;;;;3.40;99.90;;;;;;8358678;28;20019;-71
2021/12/21 17:26:52;;;;;;;;;;;3.40;99.90;;;;;;8356212;28;20007;-71
2021/12/21 17:30:54;;;;;;;;;;;3.40;99.90;;;;;;8349495;28;19968;-71
2021/12/21 17:34:56;;;;;;;;;;;3.30;99.90;;;;;;8351058;28;20027;-71
2021/12/21 17:38:58;;;;;;;;;;;3.30;99.90;;;;;;8350795;28;19961;-71
2021/12/21 17:42:59;;;;;;;;;;;3.30;99.90;;;;;;8349904;28;20012;-71
2021/12/21 17:47:01;;;;;;;;;;;3.20;99.90;;;;;;8355760;28;20368;-70
2021/12/21 17:51:03;;;;;;;;;;;3.20;99.90;;;;;;8370592;28;20427;-70
2021/12/21 17:55:05;;;;;;;;;;;3.10;99.90;;;;;;8361167;28;19924;-70
2021/12/21 17:59:07;;;;;;;;;;;3.00;99.90;;;;;;8360689;28;19991;-70
2021/12/21 18:03:09;;;;;;;;;;;2.90;99.90;;;;;;8359929;28;19978;-70
2021/12/21 18:07:10;;;;;;;;;;;2.80;99.90;;;;;;8351184;28;19936;-70
2021/12/21 18:11:12;;;;;;;;;;;2.80;99.90;;;;;;8367142;28;20388;-71
2021/12/21 18:15:14;;;;;;;;;;;2.70;99.90;;;;;;8362668;28;20012;-72
2021/12/21 18:19:16;;;;;;;;;;;2.70;99.90;;;;;;8361873;28;19971;-72
2021/12/21 18:23:18;;;;;;;;;;;2.60;99.90;;;;;;8369073;28;19928;-70
2021/12/21 18:27:20;;;;;;;;;;;2.60;99.90;;;;;;8379968;28;20023;-71
2021/12/21 18:31:21;;;;;;;;;;;2.50;99.90;;;;;;8354293;28;19966;-71
2021/12/21 18:35:24;;;;;;;;;;;2.50;99.90;;;;;;8380484;28;20380;-70
2021/12/21 18:39:26;;;;;;;;;;;2.40;99.90;;;;;;8383171;28;19956;-71
2021/12/21 18:43:27;;;;;;;;;;;2.40;99.90;;;;;;8379543;28;19987;-70
2021/12/21 18:47:31;;;;;;;;;;;2.30;99.90;;;;;;8382978;28;19929;-70
2021/12/21 18:51:33;;;;;;;;;;;2.20;99.90;;;;;;8380179;28;20003;-71
2021/12/21 18:55:35;;;;;;;;;;;2.20;99.90;;;;;;8382741;28;19928;-70
2021/12/21 18:59:37;;;;;;;;;;;2.20;99.90;;;;;;8362125;28;20022;-71
2021/12/21 19:03:38;;;;;;;;;;;2.10;99.90;;;;;;8386000;28;19983;-71
2021/12/21 19:07:40;;;;;;;;;;;2.10;99.90;;;;;;8361871;28;20394;-70
2021/12/21 19:11:42;;;;;;;;;;;2.00;99.90;;;;;;8361933;28;20344;-71
2021/12/21 19:15:43;;;;;;;;;;;1.90;99.90;;;;;;8384385;28;20295;-71
2021/12/21 19:19:45;;;;;;;;;;;1.80;99.90;;;;;;8403358;28;19924;-71
2021/12/21 19:23:47;;;;;;;;;;;1.70;99.90;;;;;;8376751;28;19964;-71
2021/12/21 19:27:48;;;;;;;;;;;1.60;99.90;;;;;;8382523;28;20050;-70
2021/12/21 19:31:50;;;;;;;;;;;1.50;99.90;;;;;;8361869;28;19947;-71
2021/12/21 19:35:52;;;;;;;;;;;1.50;99.90;;;;;;8372128;28;20097;-70
2021/12/21 19:39:53;;;;;;;;;;;1.50;99.90;;;;;;8376815;28;19960;-70
2021/12/21 19:43:55;;;;;;;;;;;1.50;99.90;;;;;;8386741;28;19924;-71
2021/12/21 19:47:58;;;;;;;;;;;1.50;99.90;;;;;;8385147;28;19940;-71
2021/12/21 19:51:59;;;;;;;;;;;1.40;99.90;;;;;;8385651;28;19924;-70
2021/12/21 19:56:01;;;;;;;;;;;1.40;99.90;;;;;;8387024;28;19932;-71
2021/12/21 20:00:04;;;;;;;;;;;1.30;99.90;;;;;;8367188;28;19929;-70
2021/12/21 20:04:06;;;;;;;;;;;1.20;99.90;;;;;;8381864;28;19976;-71
2021/12/21 20:08:09;;;;;;;;;;;1.20;99.90;;;;;;8385561;28;20143;-71
2021/12/21 20:12:11;;;;;;;;;;;1.10;99.90;;;;;;8385701;28;20376;-71
2021/12/21 20:16:12;;;;;;;;;;;1.10;99.90;;;;;;8385052;28;20015;-70
2021/12/21 20:20:16;;;;;;;;;;;1.00;99.90;;;;;;8383736;28;19971;-71
2021/12/21 20:24:18;;;;;;;;;;;1.00;99.90;;;;;;8384796;28;20355;-71
2021/12/21 20:28:20;;;;;;;;;;;0.90;99.90;;;;;;8385063;28;19975;-71
2021/12/21 20:32:21;;;;;;;;;;;0.90;99.90;;;;;;8369060;28;19991;-71
2021/12/21 20:36:23;;;;;;;;;;;0.80;99.90;;;;;;8385234;28;20241;-71
2021/12/21 20:40:29;;;;;;;;;;;0.70;99.90;;;;;;8374331;28;19936;-71
2021/12/21 20:44:30;;;;;;;;;;;0.70;99.90;;;;;;8381101;28;19932;-71
2021/12/21 20:48:32;;;;;;;;;;;0.60;99.90;;;;;;8360395;28;19955;-70
2021/12/21 20:52:34;;;;;;;;;;;0.60;99.90;;;;;;8360492;28;19974;-71
2021/12/21 20:56:36;;;;;;;;;;;0.40;99.90;;;;;;8382987;28;19925;-71
2021/12/21 21:00:40;;;;;;;;;;;0.40;99.90;;;;;;8384492;28;19944;-70
2021/12/21 21:04:42;;;;;;;;;;;0.30;99.90;;;;;;8383654;28;19936;-71
2021/12/21 21:08:44;;;;;;;;;;;0.30;99.90;;;;;;8399070;28;19928;-71
2021/12/21 21:12:46;;;;;;;;;;;0.30;99.90;;;;;;8367276;28;19960;-70
2021/12/21 21:16:47;;;;;;;;;;;0.30;99.90;;;;;;8381292;28;20245;-70
2021/12/21 21:20:49;;;;;;;;;;;0.30;99.90;;;;;;8382950;28;19932;-71
2021/12/21 21:24:51;;;;;;;;;;;0.20;99.90;;;;;;8380554;28;20315;-70
2021/12/21 21:28:53;;;;;;;;;;;0.20;99.90;;;;;;8359631;28;20324;-70
2021/12/21 21:32:54;;;;;;;;;;;0.20;99.90;;;;;;8368623;28;19936;-70
2021/12/21 21:36:56;;;;;;;;;;;0.20;99.90;;;;;;8389097;28;19924;-71
2021/12/21 21:40:58;;;;;;;;;;;0.10;99.90;;;;;;8388334;28;19979;-70
2021/12/21 21:44:59;;;;;;;;;;;0.10;99.90;;;;;;8383245;28;19982;-70
2021/12/21 21:49:01;;;;;;;;;;;0.00;99.90;;;;;;8387099;28;19967;-70
2021/12/21 21:57:23;;;;;;;;;;;-0.10;99.90;;;;;;8383726;28;19937;-71
2021/12/21 22:01:27;;;;;;;;;;;-0.10;99.90;;;;;;8374306;28;19932;-71
2021/12/21 22:05:30;;;;;;;;;;;-0.20;99.90;;;;;;8392571;28;19928;-71
2021/12/21 22:09:32;;;;;;;;;;;-0.20;99.90;;;;;;8370272;28;19932;-70
2021/12/21 22:13:35;;;;;;;;;;;-0.30;99.90;;;;;;8372773;28;19965;-70
2021/12/21 22:17:37;;;;;;;;;;;-0.40;99.90;;;;;;8391481;28;20359;-70
2021/12/21 22:21:38;;;;;;;;;;;-0.40;99.90;;;;;;8400659;28;19932;-70
2021/12/21 22:25:40;;;;;;;;;;;-0.40;99.90;;;;;;8387353;28;19980;-70
2021/12/21 22:29:42;;;;;;;;;;;-0.50;99.90;;;;;;8368585;28;19964;-70
2021/12/21 22:33:44;;;;;;;;;;;-0.50;99.90;;;;;;8391972;28;19928;-70
2021/12/21 22:37:46;;;;;;;;;;;-0.50;99.90;;;;;;8377804;28;19932;-71
2021/12/21 22:41:47;;;;;;;;;;;-0.60;99.90;;;;;;8392203;28;20398;-71
2021/12/21 22:45:49;;;;;;;;;;;-0.60;99.90;;;;;;8381211;28;20289;-70
2021/12/21 22:49:54;;;;;;;;;;;-0.60;99.90;;;;;;8383013;28;19956;-70
2021/12/21 22:53:56;;;;;;;;;;;-0.60;99.90;;;;;;8368045;28;19975;-70
2021/12/21 22:57:57;;;;;;;;;;;-0.70;99.90;;;;;;8353292;28;19972;-71
2021/12/21 23:01:59;;;;;;;;;;;-0.80;99.90;;;;;;8384649;28;20411;-71
2021/12/21 23:06:02;;;;;;;;;;;-0.70;99.90;;;;;;8384969;28;19936;-70
2021/12/21 23:10:04;;;;;;;;;;;-0.80;99.90;;;;;;8378098;28;20344;-70
2021/12/21 23:14:06;;;;;;;;;;;-0.70;99.90;;;;;;8366407;28;19933;-71
2021/12/21 23:18:09;;;;;;;;;;;-0.80;99.90;;;;;;8383884;28;19970;-70
2021/12/21 23:22:11;;;;;;;;;;;-0.80;99.90;;;;;;8374658;28;20371;-70
2021/12/21 23:26:13;;;;;;;;;;;-0.80;99.90;;;;;;8376034;28;19940;-70
2021/12/21 23:30:23;;;;;;;;;;;-0.80;99.90;;;;;;8373893;28;19924;-70
2021/12/21 23:34:25;;;;;;;;;;;-0.80;99.90;;;;;;8374751;28;19925;-71
2021/12/21 23:38:27;;;;;;;;;;;-0.90;99.90;;;;;;8383600;28;19932;-71
2021/12/21 23:42:29;;;;;;;;;;;-0.90;99.90;;;;;;8379690;28;19935;-70
2021/12/21 23:46:30;;;;;;;;;;;-0.90;99.90;;;;;;8367786;28;19990;-70
2021/12/21 23:50:32;;;;;;;;;;;-1.00;99.90;;;;;;8387099;28;19935;-70
2021/12/21 23:54:34;;;;;;;;;;;-0.90;99.90;;;;;;8387180;28;20242;-70
2021/12/21 23:58:35;;;;;;;;;;;-0.90;99.90;;;;;;8366802;28;19980;-71
